Time;durP1;ratioP1;P1;durP2;ratioP2;P2;SDS_P1;SDS_P2;PMS_P1;PMS_P2;Temp;Humidity;BMP_temperature;BMP_pressure;BME280_temperature;BME280_humidity;BME280_pressure;Samples;Min_cycle;Max_cycle;Signal;HPM_P1;HPM_P2
2022/05/04 00:01:56;;;;;;;9.65;4.03;;;;;;;7.23;73.82;101251.50;5021556;28;20109;-84
2022/05/04 00:04:22;;;;;;;8.50;3.78;;;;;;;7.20;74.02;101248.00;4998319;28;20133;-82
2022/05/04 00:06:49;;;;;;;8.15;3.10;;;;;;;7.14;73.99;101261.78;5003205;28;20065;-81
2022/05/04 00:09:16;;;;;;;7.47;4.13;;;;;;;7.11;74.46;101256.56;4979499;28;20042;-84
2022/05/04 00:11:44;;;;;;;11.38;4.63;;;;;;;7.04;74.56;101253.00;5004519;28;20340;-83
2022/05/04 00:14:10;;;;;;;10.20;3.60;;;;;;;7.00;75.38;101255.50;5004450;28;20054;-82
2022/05/04 00:16:37;;;;;;;9.32;4.75;;;;;;;7.01;75.00;101255.53;4996891;28;20049;-82
2022/05/04 00:19:04;;;;;;;7.93;4.20;;;;;;;6.99;75.11;101254.66;5014121;28;20164;-82
2022/05/04 00:21:30;;;;;;;11.13;4.88;;;;;;;6.98;75.54;101258.09;5022507;28;20112;-81
2022/05/04 00:23:57;;;;;;;10.73;3.70;;;;;;;6.97;75.67;101251.13;4982824;28;20050;-82
2022/05/04 00:26:23;;;;;;;7.43;3.20;;;;;;;6.97;75.71;101260.69;4992074;28;20261;-82
2022/05/04 00:28:50;;;;;;;8.68;3.47;;;;;;;6.91;75.69;101245.81;4995327;28;20048;-83
2022/05/04 00:31:17;;;;;;;11.70;3.47;;;;;;;6.86;75.67;101256.16;5000818;28;20045;-82
2022/05/04 00:33:43;;;;;;;7.45;3.50;;;;;;;6.81;76.24;101249.16;4997335;28;20045;-82
2022/05/04 00:36:10;;;;;;;9.95;3.60;;;;;;;6.75;76.29;101256.00;5002087;28;20060;-82
2022/05/04 00:38:37;;;;;;;9.50;3.45;;;;;;;6.69;76.85;101258.50;5015086;28;20053;-82
2022/05/04 00:41:04;;;;;;;12.15;3.83;;;;;;;6.68;76.78;101258.47;4965393;28;20078;-81
2022/05/04 00:43:31;;;;;;;5.57;3.50;;;;;;;6.67;77.05;101251.53;4984914;28;20049;-81
2022/05/04 00:45:58;;;;;;;13.10;3.40;;;;;;;6.66;77.29;101250.63;4990105;28;20105;-82
2022/05/04 00:48:28;;;;;;;9.95;4.28;;;;;;;6.60;77.61;101251.41;4989904;28;20053;-82
2022/05/04 00:50:55;;;;;;;6.70;3.63;;;;;;;6.57;77.63;101247.88;4974603;28;20049;-82
2022/05/04 00:53:25;;;;;;;5.13;3.47;;;;;;;6.53;77.44;101253.88;4999449;28;20046;-83
2022/05/04 00:55:52;;;;;;;8.43;3.30;;;;;;;6.48;77.63;101250.31;5016155;28;20057;-81
2022/05/04 01:01:11;;;;;;;9.50;3.80;;;;;;;6.38;78.28;101251.91;4953856;28;20106;-82
2022/05/04 01:03:40;;;;;;;7.28;4.68;;;;;;;6.36;78.50;101253.59;4981906;28;20069;-81
2022/05/04 01:06:06;;;;;;;10.18;4.18;;;;;;;6.32;78.93;101252.63;4986525;28;20049;-81
2022/05/04 01:08:33;;;;;;;14.18;7.07;;;;;;;6.30;79.15;101249.16;4986576;28;20049;-82
2022/05/04 01:11:00;;;;;;;9.05;4.35;;;;;;;6.27;78.97;101255.16;4981673;28;20049;-84
2022/05/04 01:13:27;;;;;;;9.88;4.03;;;;;;;6.24;79.40;101260.28;4981110;28;20034;-82
2022/05/04 01:15:54;;;;;;;14.23;4.70;;;;;;;6.24;79.37;101256.84;5007530;28;20117;-82
2022/05/04 01:18:20;;;;;;;10.50;4.05;;;;;;;6.20;79.60;101255.91;5006392;28;20060;-81
2022/05/04 01:20:47;;;;;;;14.80;4.95;;;;;;;6.19;79.62;101254.16;4991815;28;21110;-85
2022/05/04 01:23:14;;;;;;;12.00;4.97;;;;;;;6.15;80.31;101262.72;4983974;28;20065;-81
2022/05/04 01:25:40;;;;;;;10.32;4.40;;;;;;;6.12;80.05;101265.28;4984107;28;20116;-82
2022/05/04 01:28:07;;;;;;;14.30;4.90;;;;;;;6.10;80.28;101270.47;5003255;28;20566;-80
2022/05/04 01:30:34;;;;;;;7.78;4.55;;;;;;;6.08;80.78;101266.94;4994272;28;20042;-81
2022/05/04 01:33:01;;;;;;;13.18;4.75;;;;;;;6.06;80.60;101263.44;4989144;28;20065;-81
2022/05/04 01:35:28;;;;;;;8.32;4.28;;;;;;;6.01;80.96;101265.09;5003876;28;20046;-82
2022/05/04 01:37:56;;;;;;;13.02;4.88;;;;;;;5.98;81.22;101267.59;4999642;28;20049;-82
2022/05/04 01:40:25;;;;;;;6.13;4.78;;;;;;;5.99;81.41;101268.50;4997116;28;20068;-82
2022/05/04 01:42:52;;;;;;;12.70;4.32;;;;;;;5.98;81.36;101267.59;5002803;28;20068;-83
2022/05/04 01:45:19;;;;;;;12.43;6.13;;;;;;;5.96;81.34;101269.28;5021212;28;20045;-83
2022/05/04 01:47:52;;;;;;;15.45;4.75;;;;;;;5.93;81.92;101271.78;4980025;28;20070;-81
2022/05/04 01:50:19;;;;;;;7.80;4.03;;;;;;;5.93;81.77;101269.19;4980974;28;20060;-81
2022/05/04 01:52:46;;;;;;;10.05;4.32;;;;;;;5.93;81.93;101267.50;4983148;28;20061;-84
2022/05/04 01:55:15;;;;;;;6.95;3.33;;;;;;;5.95;81.90;101265.78;5004192;28;20068;-80
2022/05/04 01:57:45;;;;;;;10.85;5.38;;;;;;;5.92;81.92;101262.28;5005307;28;20060;-82
2022/05/04 02:00:11;;;;;;;11.20;5.32;;;;;;;5.87;82.31;101269.97;4997928;28;20424;-80
2022/05/04 02:02:39;;;;;;;8.90;4.00;;;;;;;5.85;82.01;101270.78;4988289;28;20081;-82
2022/05/04 02:05:07;;;;;;;10.52;4.80;;;;;;;5.80;82.13;101273.25;4987978;28;20117;-82
2022/05/04 02:07:38;;;;;;;9.55;3.83;;;;;;;5.77;82.24;101268.00;4996920;28;20045;-80
2022/05/04 02:10:07;;;;;;;6.32;4.65;;;;;;;5.71;82.99;101266.19;4979312;28;20103;-83
2022/05/04 02:12:34;;;;;;;7.13;3.63;;;;;;;5.67;82.77;101274.75;5015039;28;20092;-81
2022/05/04 02:15:03;;;;;;;7.88;4.43;;;;;;;5.64;82.77;101269.47;4982979;28;20068;-84
2022/05/04 02:17:30;;;;;;;7.60;4.82;;;;;;;5.59;82.97;101260.72;4985207;28;20074;-84
2022/05/04 02:19:56;;;;;;;9.93;4.25;;;;;;;5.57;83.02;101263.28;4999576;28;20318;-83
2022/05/04 02:22:23;;;;;;;14.30;4.07;;;;;;;5.55;83.68;101257.16;4985018;28;20045;-83
2022/05/04 02:24:50;;;;;;;11.43;4.80;;;;;;;5.52;83.56;101256.25;4977123;28;20041;-84
2022/05/04 02:27:16;;;;;;;11.23;4.57;;;;;;;5.50;84.04;101253.63;4997132;28;20540;-84
2022/05/04 02:29:43;;;;;;;10.73;4.40;;;;;;;5.49;83.68;101258.75;4982527;28;20139;-82
2022/05/04 02:32:09;;;;;;;6.38;4.30;;;;;;;5.45;84.42;101260.44;4988017;28;20042;-81
2022/05/04 02:37:54;;;;;;;10.35;3.97;;;;;;;5.45;84.96;101261.28;4984271;28;20053;-81
2022/05/04 02:40:11;;;;;;;18.40;6.13;;;;;;;5.45;84.92;101253.50;4983600;28;20100;-81
2022/05/04 02:42:38;;;;;;;10.77;4.95;;;;;;;5.44;84.91;101246.56;4979000;28;20105;-81
2022/05/04 02:45:06;;;;;;;11.07;7.20;;;;;;;5.43;84.57;101243.94;5003038;28;20127;-82
2022/05/04 02:47:33;;;;;;;16.08;4.53;;;;;;;5.43;84.89;101247.38;4987231;28;20116;-82
2022/05/04 02:49:59;;;;;;;9.95;4.13;;;;;;;5.42;85.07;101248.25;4980535;28;20114;-84
2022/05/04 02:52:26;;;;;;;15.70;4.32;;;;;;;5.38;84.86;101245.56;4982016;28;20710;-81
2022/05/04 02:54:52;;;;;;;12.25;4.70;;;;;;;5.35;85.37;101248.94;4986713;28;20321;-84
2022/05/04 02:57:19;;;;;;;8.05;4.25;;;;;;;5.34;85.40;101254.13;4979437;28;20046;-82
2022/05/04 02:59:46;;;;;;;6.35;3.92;;;;;;;5.31;85.56;101252.34;4983113;28;20058;-83
2022/05/04 03:02:27;;;;;;;8.02;4.55;;;;;;;5.29;86.01;101249.72;4998480;28;20069;-81
2022/05/04 03:05:01;;;;;;;10.95;5.57;;;;;;;5.28;86.06;101249.69;5005724;28;20046;-82
2022/05/04 03:07:29;;;;;;;11.80;4.70;;;;;;;5.25;86.54;101247.00;5026549;28;20064;-84
2022/05/04 03:09:57;;;;;;;6.28;4.22;;;;;;;5.23;87.42;101248.69;5006932;28;20042;-83
2022/05/04 03:12:27;;;;;;;8.55;5.10;;;;;;;5.20;86.89;101240.81;5007474;28;20022;-82
2022/05/04 03:14:56;;;;;;;11.55;6.45;;;;;;;5.17;87.63;101244.22;5008936;28;20041;-81
2022/05/04 03:17:24;;;;;;;9.63;5.25;;;;;;;5.17;87.47;101245.94;4990023;28;20113;-82
2022/05/04 03:19:53;;;;;;;11.55;5.22;;;;;;;5.12;88.15;101238.94;4989605;28;20578;-83
2022/05/04 03:22:20;;;;;;;6.63;4.45;;;;;;;5.09;88.01;101246.63;4991196;28;20041;-84
2022/05/04 03:24:47;;;;;;;8.50;4.88;;;;;;;5.09;88.61;101243.19;4998373;28;20173;-83
2022/05/04 03:27:14;;;;;;;8.25;5.32;;;;;;;5.06;88.44;101245.69;4999469;28;20060;-82
2022/05/04 03:29:40;;;;;;;10.93;4.85;;;;;;;5.06;88.60;101243.97;5001922;28;20125;-83
2022/05/04 03:32:11;;;;;;;11.63;5.43;;;;;;;5.04;88.82;101248.25;5003894;28;20037;-83
2022/05/04 03:34:38;;;;;;;13.55;5.40;;;;;;;5.04;88.99;101240.47;4984879;28;20041;-84
2022/05/04 03:37:05;;;;;;;10.48;5.32;;;;;;;5.06;88.66;101236.19;4999173;28;20052;-82
2022/05/04 03:39:38;;;;;;;9.10;4.63;;;;;;;5.08;88.78;101238.81;4993916;28;20062;-81
2022/05/04 03:42:05;;;;;;;10.07;5.38;;;;;;;5.10;88.95;101238.03;4998387;28;20038;-82
2022/05/04 03:44:31;;;;;;;9.60;4.43;;;;;;;5.14;89.04;101242.44;4983705;28;20413;-82
2022/05/04 03:46:58;;;;;;;10.18;4.40;;;;;;;5.17;89.04;101231.25;4984394;28;20117;-81
2022/05/04 03:49:30;;;;;;;7.93;4.28;;;;;;;5.25;88.59;101240.09;5001333;28;20053;-82
2022/05/04 03:51:58;;;;;;;9.88;4.75;;;;;;;5.29;88.36;101233.22;5003748;28;20041;-82
2022/05/04 03:54:26;;;;;;;12.60;6.00;;;;;;;5.32;87.56;101229.84;4997713;28;20049;-81
2022/05/04 03:56:52;;;;;;;9.77;4.47;;;;;;;5.30;87.60;101229.81;5001286;28;20048;-83
2022/05/04 03:59:19;;;;;;;8.65;4.88;;;;;;;5.30;87.51;101233.25;4987856;28;20137;-84
2022/05/04 04:01:45;;;;;;;9.75;4.07;;;;;;;5.30;88.21;101232.41;4988670;28;20081;-81
2022/05/04 04:04:12;;;;;;;11.48;5.13;;;;;;;5.31;88.32;101234.16;5004654;28;20061;-83
2022/05/04 04:06:41;;;;;;;13.20;5.43;;;;;;;5.30;88.57;101232.41;4987876;28;20058;-82
2022/05/04 04:09:11;;;;;;;14.32;5.15;;;;;;;5.31;88.43;101231.56;5002224;28;21448;-85
2022/05/04 04:11:46;;;;;;;10.00;5.30;;;;;;;5.33;88.21;101232.44;5022007;28;20622;-82
2022/05/04 04:14:16;;;;;;;10.73;5.03;;;;;;;5.36;87.73;101235.13;4987828;28;20073;-83
2022/05/04 04:16:42;;;;;;;12.10;5.05;;;;;;;5.36;87.99;101232.53;5013414;28;20042;-82
2022/05/04 04:19:09;;;;;;;10.48;5.78;;;;;;;5.39;87.79;101235.19;4978894;28;20057;-84
2022/05/04 04:21:54;;;;;;;11.52;5.50;;;;;;;5.41;87.15;101230.91;4994580;28;20065;-82
2022/05/04 04:24:25;;;;;;;12.82;5.18;;;;;;;5.47;87.57;101237.94;5014171;28;20106;-83
2022/05/04 04:27:01;;;;;;;16.83;5.65;;;;;;;5.53;86.67;101242.38;5019990;28;20058;-83
2022/05/04 04:29:28;;;;;;;11.50;5.10;;;;;;;5.59;86.81;101238.22;4990033;28;20069;-83
2022/05/04 04:31:55;;;;;;;12.70;4.10;;;;;;;5.70;86.24;101242.78;4996320;28;20142;-84
2022/05/04 04:34:24;;;;;;;9.25;4.32;;;;;;;5.77;85.76;101237.69;5002910;28;20125;-81
2022/05/04 04:36:53;;;;;;;11.48;5.70;;;;;;;5.85;85.26;101244.78;5008720;28;20046;-81
2022/05/04 04:39:28;;;;;;;6.95;4.35;;;;;;;5.93;84.62;101243.22;5008321;28;20061;-82
2022/05/04 04:42:06;;;;;;;12.40;4.60;;;;;;;5.99;83.31;101248.56;4988833;28;20037;-82
2022/05/04 04:44:34;;;;;;;19.25;4.53;;;;;;;6.05;82.63;101253.91;4990405;28;20042;-84
2022/05/04 04:47:04;;;;;;;13.45;4.65;;;;;;;6.07;82.43;101249.59;5014699;28;20058;-83
2022/05/04 04:49:33;;;;;;;10.38;3.88;;;;;;;6.15;81.75;101252.34;4991392;28;20057;-84
2022/05/04 04:52:00;;;;;;;11.25;4.30;;;;;;;6.19;81.52;101251.56;4992426;28;20066;-83
2022/05/04 04:54:26;;;;;;;5.70;3.17;;;;;;;6.25;81.29;101249.06;5001183;28;20064;-82
2022/05/04 04:56:53;;;;;;;6.18;3.60;;;;;;;6.32;80.71;101255.25;4984409;28;20104;-81
2022/05/04 04:59:20;;;;;;;8.52;3.70;;;;;;;6.38;80.65;101257.09;4986075;28;20108;-84
2022/05/04 05:01:46;;;;;;;9.93;3.58;;;;;;;6.44;80.14;101254.59;4982708;28;20072;-83
2022/05/04 05:04:13;;;;;;;11.25;3.95;;;;;;;6.51;79.82;101247.78;4986185;28;20124;-83
2022/05/04 05:06:40;;;;;;;8.02;3.58;;;;;;;6.55;79.44;101241.78;4999628;28;20836;-84
2022/05/04 05:09:06;;;;;;;23.75;6.93;;;;;;;6.60;79.00;101241.00;4989144;28;20301;-82
2022/05/04 05:11:33;;;;;;;9.10;2.22;;;;;;;6.65;78.36;101245.41;5002646;28;20030;-82
2022/05/04 05:16:44;;;;;;;7.22;2.58;;;;;;;6.76;76.25;101241.25;5017915;28;20042;-82
2022/05/04 05:19:13;;;;;;;11.48;2.85;;;;;;;6.79;75.81;101250.00;5009999;28;20104;-83
2022/05/04 05:21:41;;;;;;;10.95;3.33;;;;;;;6.81;75.63;101249.16;4978052;28;20060;-82
2022/05/04 05:24:07;;;;;;;7.55;2.70;;;;;;;6.83;75.39;101242.22;4998230;28;20037;-82
2022/05/04 05:26:36;;;;;;;8.73;3.28;;;;;;;6.88;74.98;101248.38;5006702;28;20045;-83
2022/05/04 05:29:32;;;;;;;8.25;2.60;;;;;;;6.93;74.85;101250.19;5021504;28;20050;-84
2022/05/04 05:31:58;;;;;;;13.45;2.47;;;;;;;7.01;74.63;101247.72;5002274;28;20127;-81
2022/05/04 05:34:26;;;;;;;5.25;2.42;;;;;;;7.10;74.32;101249.59;4978788;28;20057;-81
2022/05/04 05:36:56;;;;;;;10.93;2.40;;;;;;;7.12;73.26;101251.38;4978489;28;20157;-83
2022/05/04 05:39:23;;;;;;;15.43;2.90;;;;;;;7.16;72.74;101252.28;4998293;28;20309;-83
2022/05/04 05:41:49;;;;;;;11.88;2.58;;;;;;;7.16;72.95;101247.09;4969582;28;20118;-81
2022/05/04 05:44:16;;;;;;;7.88;2.35;;;;;;;7.21;72.72;101250.63;4983985;28;20115;-83
2022/05/04 05:46:42;;;;;;;9.23;3.00;;;;;;;7.25;72.46;101251.56;4974792;28;20051;-82
2022/05/04 05:49:09;;;;;;;9.15;3.00;;;;;;;7.28;72.40;101254.19;4967369;28;20085;-81
2022/05/04 05:51:36;;;;;;;12.00;2.85;;;;;;;7.35;72.50;101242.13;4984954;28;20046;-81
2022/05/04 05:54:02;;;;;;;9.10;2.58;;;;;;;7.38;71.90;101253.47;4966279;28;20240;-84
2022/05/04 05:56:29;;;;;;;8.32;2.33;;;;;;;7.39;71.80;101250.03;4990329;28;20037;-81
2022/05/04 05:58:56;;;;;;;11.18;2.90;;;;;;;7.42;71.57;101254.41;4963695;28;20136;-82
2022/05/04 06:01:23;;;;;;;8.10;2.45;;;;;;;7.41;71.64;101245.69;4994373;28;20046;-83
2022/05/04 06:03:50;;;;;;;16.40;2.75;;;;;;;7.48;71.60;101248.38;4975588;28;20054;-82
2022/05/04 06:06:16;;;;;;;7.82;3.53;;;;;;;7.56;71.30;101249.34;4978316;28;20081;-81
2022/05/04 06:08:43;;;;;;;14.60;3.42;;;;;;;7.66;71.09;101250.34;4976478;28;20168;-83
2022/05/04 06:11:10;;;;;;;11.98;4.28;;;;;;;7.79;70.65;101252.25;4983479;28;20081;-83
2022/05/04 06:13:37;;;;;;;11.45;3.08;;;;;;;7.86;69.82;101251.47;4964787;28;20046;-84
2022/05/04 06:16:03;;;;;;;11.85;2.75;;;;;;;7.95;69.50;101254.19;4985843;28;20073;-81
2022/05/04 06:18:30;;;;;;;6.25;3.20;;;;;;;8.07;69.09;101247.34;4968326;28;20381;-84
2022/05/04 06:21:00;;;;;;;6.47;2.60;;;;;;;8.25;68.68;101246.66;4980712;28;20050;-81
2022/05/04 06:23:27;;;;;;;9.45;4.10;;;;;;;8.40;67.84;101249.44;4980339;28;20045;-84
2022/05/04 06:25:53;;;;;;;9.48;2.53;;;;;;;8.44;68.05;101239.91;4995642;28;20050;-83
2022/05/04 06:28:22;;;;;;;7.20;2.78;;;;;;;8.52;67.24;101245.22;4982602;28;20050;-84
2022/05/04 06:36:18;;;;;;;12.68;3.20;;;;;;;8.64;65.70;101240.09;4971227;28;20444;-82
2022/05/04 06:38:44;;;;;;;7.38;2.60;;;;;;;8.72;66.07;101251.50;4965100;28;20117;-80
2022/05/04 06:41:11;;;;;;;8.27;2.50;;;;;;;8.79;65.42;101241.97;4963404;28;20055;-81
2022/05/04 06:43:38;;;;;;;10.18;2.85;;;;;;;8.90;64.85;101242.06;4984643;28;20402;-82
2022/05/04 06:46:07;;;;;;;5.30;2.40;;;;;;;9.05;64.29;101246.53;4983874;28;20113;-83
2022/05/04 06:48:34;;;;;;;8.20;2.50;;;;;;;9.25;62.97;101247.50;4997748;28;20093;-83
2022/05/04 06:51:00;;;;;;;19.35;2.63;;;;;;;9.45;63.78;101249.34;4968488;28;20069;-84
2022/05/04 06:53:27;;;;;;;4.15;2.65;;;;;;;9.64;62.10;101247.72;4978363;28;20133;-82
2022/05/04 06:55:54;;;;;;;8.75;3.45;;;;;;;9.72;61.51;101252.97;4967927;28;20042;-80
2022/05/04 06:58:23;;;;;;;6.70;2.95;;;;;;;9.96;61.66;101246.09;5005026;28;20053;-84
2022/05/04 07:00:50;;;;;;;8.80;2.67;;;;;;;10.36;60.62;101247.09;4969146;28;20058;-82
2022/05/04 07:03:16;;;;;;;8.90;2.22;;;;;;;10.78;59.96;101244.53;4984864;28;20050;-82
2022/05/04 07:05:43;;;;;;;16.77;2.80;;;;;;;11.17;56.77;101245.34;4959489;28;20046;-81
2022/05/04 07:08:10;;;;;;;7.68;1.92;;;;;;;11.45;55.87;101237.41;4976284;28;20058;-82
2022/05/04 07:10:37;;;;;;;7.18;2.40;;;;;;;11.77;54.90;101243.41;4964638;28;20456;-82
2022/05/04 07:13:04;;;;;;;3.95;2.22;;;;;;;11.97;53.58;101236.34;4980441;28;20057;-81
2022/05/04 07:15:30;;;;;;;11.90;5.95;;;;;;;12.07;52.66;101242.41;4991829;28;20053;-82
2022/05/04 07:17:57;;;;;;;11.40;2.22;;;;;;;12.20;53.09;101236.22;4982478;28;20049;-81
2022/05/04 07:20:24;;;;;;;10.38;2.88;;;;;;;12.41;51.75;101242.16;4960908;28;20049;-82
2022/05/04 07:22:51;;;;;;;5.25;2.00;;;;;;;12.58;51.25;101242.06;4985427;28;20042;-82
2022/05/04 07:25:18;;;;;;;7.30;2.30;;;;;;;12.83;50.43;101239.25;4954021;28;20071;-80
2022/05/04 07:27:44;;;;;;;8.32;2.58;;;;;;;13.17;50.90;101246.81;4971954;28;20038;-82
2022/05/04 07:30:12;;;;;;;5.80;1.75;;;;;;;13.64;49.86;101241.94;4958554;28;20047;-82
2022/05/04 07:32:39;;;;;;;6.22;2.15;;;;;;;13.99;48.40;101240.59;4960638;28;20046;-82
2022/05/04 07:35:08;;;;;;;7.25;2.45;;;;;;;14.14;47.88;101236.88;4955864;28;20049;-82
2022/05/04 07:37:35;;;;;;;8.23;2.60;;;;;;;14.43;47.36;101244.34;4991695;28;20054;-81
2022/05/04 07:42:45;;;;;;;5.03;2.13;;;;;;;14.22;46.47;101240.25;4991596;28;20038;-82
2022/05/04 07:45:13;;;;;;;10.10;3.15;;;;;;;14.07;46.44;101236.94;4975776;28;20137;-82
2022/05/04 07:47:41;;;;;;;6.53;2.45;;;;;;;13.85;47.61;101244.28;4977388;28;20046;-81
2022/05/04 07:50:11;;;;;;;8.50;2.20;;;;;;;14.09;47.13;101242.19;4973779;28;20046;-81
2022/05/04 07:52:38;;;;;;;9.35;2.30;;;;;;;14.66;46.05;101248.41;4971572;28;20035;-81
2022/05/04 07:55:06;;;;;;;4.65;3.25;;;;;;;15.03;45.27;101235.47;4978991;28;20053;-81
2022/05/04 07:57:33;;;;;;;6.90;2.60;;;;;;;15.31;44.45;101232.28;4986494;28;20056;-81
2022/05/04 08:05:36;;;;;;;5.68;3.00;;;;;;;15.57;42.57;101230.91;4981123;28;20033;-81
2022/05/04 08:08:02;;;;;;;4.63;2.38;;;;;;;15.72;43.24;101232.34;4991399;28;20057;-81
2022/05/04 08:10:29;;;;;;;4.32;2.63;;;;;;;16.05;41.92;101235.22;4988197;28;20058;-82
2022/05/04 08:13:02;;;;;;;2.83;2.28;;;;;;;16.08;41.58;101236.91;4986371;28;20045;-81
2022/05/04 08:15:31;;;;;;;11.77;2.60;;;;;;;16.17;41.40;101229.63;4991868;28;20056;-83
2022/05/04 08:17:58;;;;;;;5.32;2.47;;;;;;;16.28;41.13;101232.06;4995061;28;20060;-81
2022/05/04 08:20:27;;;;;;;6.88;2.00;;;;;;;16.72;41.15;101234.50;4994460;28;20053;-81
2022/05/04 08:22:54;;;;;;;5.50;2.10;;;;;;;17.45;40.14;101232.59;4976828;28;20037;-81
2022/05/04 08:25:21;;;;;;;7.00;2.28;;;;;;;18.30;38.79;101238.03;4975962;28;20457;-83
2022/05/04 08:27:47;;;;;;;5.93;2.45;;;;;;;19.08;37.38;101246.97;4987424;28;20586;-84
2022/05/04 08:30:14;;;;;;;8.70;2.20;;;;;;;19.78;36.05;101232.91;4971308;28;20078;-83
2022/05/04 08:32:44;;;;;;;8.15;2.47;;;;;;;19.77;35.38;101235.63;5006641;28;20043;-81
2022/05/04 08:35:12;;;;;;;4.68;2.10;;;;;;;19.91;35.57;101230.66;4966433;28;20145;-83
2022/05/04 08:37:39;;;;;;;7.93;2.75;;;;;;;20.36;34.48;101239.53;4990601;28;20137;-82
2022/05/04 08:40:08;;;;;;;9.90;2.58;;;;;;;20.33;33.96;101237.84;4971305;28;20054;-83
2022/05/04 08:42:41;;;;;;;8.40;2.40;;;;;;;20.13;33.88;101232.50;4979768;28;20042;-82
2022/05/04 08:45:11;;;;;;;7.77;2.10;;;;;;;20.67;34.07;101228.47;4971197;28;20046;-81
2022/05/04 08:47:40;;;;;;;5.78;2.25;;;;;;;21.49;33.18;101224.09;4981927;28;20045;-82
2022/05/04 08:50:18;;;;;;;4.07;2.15;;;;;;;21.20;31.83;101225.38;4989072;28;20069;-82
2022/05/04 08:52:53;;;;;;;5.65;2.97;;;;;;;20.67;32.70;101231.13;4968892;28;20488;-82
2022/05/04 08:55:21;;;;;;;3.65;2.05;;;;;;;20.76;33.47;101231.72;4975453;28;20171;-82
2022/05/04 08:57:48;;;;;;;4.53;1.52;;;;;;;20.82;33.04;101226.16;5004654;28;20058;-82
2022/05/04 09:00:15;;;;;;;3.58;2.22;;;;;;;20.91;32.69;101225.75;4969852;28;20049;-82
2022/05/04 09:02:42;;;;;;;5.10;2.60;;;;;;;20.95;32.75;101219.34;4969623;28;20212;-82
2022/05/04 09:05:24;;;;;;;4.55;1.95;;;;;;;21.58;32.03;101213.03;4969077;28;20069;-83
2022/05/04 09:07:54;;;;;;;4.75;1.95;;;;;;;21.83;31.39;101216.38;4969476;28;20046;-84
2022/05/04 09:10:24;;;;;;;6.35;3.00;;;;;;;21.54;30.79;101210.56;4982169;28;20068;-83
2022/05/04 09:12:54;;;;;;;4.85;2.60;;;;;;;20.91;32.11;101219.53;4970518;28;20046;-83
2022/05/04 09:15:22;;;;;;;5.13;2.17;;;;;;;20.99;32.70;101223.59;4985865;28;20697;-83
2022/05/04 09:18:01;;;;;;;7.45;2.08;;;;;;;21.63;31.63;101221.69;4991683;28;20060;-81
2022/05/04 09:20:55;;;;;;;5.88;2.88;;;;;;;21.55;30.72;101212.31;4998017;28;20045;-83
2022/05/04 09:23:30;;;;;;;6.22;2.50;;;;;;;21.89;31.07;101216.94;4998409;28;20140;-82
2022/05/04 09:26:05;;;;;;;3.90;2.22;;;;;;;22.70;30.29;101203.22;4984372;28;20049;-83
2022/05/04 09:28:32;;;;;;;8.02;3.20;;;;;;;23.58;29.67;101205.75;4989815;28;20157;-84
2022/05/04 09:31:07;;;;;;;7.15;2.50;;;;;;;24.58;27.93;101204.56;4987470;28;20069;-82
2022/05/04 09:33:37;;;;;;;6.07;2.40;;;;;;;24.65;27.73;101199.75;4970216;28;20543;-82
2022/05/04 09:36:05;;;;;;;5.97;2.83;;;;;;;25.12;27.44;101195.97;4998331;28;20053;-84
2022/05/04 09:47:21;;;;;;;6.28;2.95;;;;;;;24.71;26.83;101196.72;4926273;29;20150;-82
2022/05/04 09:49:49;;;;;;;7.93;2.75;;;;;;;23.46;28.39;101189.44;4945804;28;20058;-82
2022/05/04 09:52:24;;;;;;;6.05;2.88;;;;;;;23.58;28.47;101195.94;4969619;28;20695;-84
2022/05/04 09:54:52;;;;;;;3.38;2.53;;;;;;;24.55;27.74;101194.91;4983140;28;20052;-84
2022/05/04 09:57:20;;;;;;;9.98;3.47;;;;;;;25.64;26.85;101189.19;5003845;28;20095;-82
2022/05/04 09:59:48;;;;;;;4.90;2.85;;;;;;;26.30;25.40;101191.25;4969347;28;20181;-83
2022/05/04 10:02:15;;;;;;;6.60;2.70;;;;;;;26.39;25.45;101187.94;4977151;28;20400;-83
2022/05/04 10:04:46;;;;;;;4.82;2.20;;;;;;;26.93;25.27;101181.59;4980618;28;20458;-82
2022/05/04 10:07:12;;;;;;;8.10;2.50;;;;;;;27.40;24.03;101181.91;4970673;28;20054;-81
2022/05/04 10:09:39;;;;;;;6.22;3.05;;;;;;;27.79;24.06;101181.81;4970924;28;20068;-82
2022/05/04 10:12:07;;;;;;;7.13;3.20;;;;;;;27.68;23.00;101172.69;4970785;28;20042;-82
2022/05/04 10:14:34;;;;;;;3.25;2.78;;;;;;;26.88;24.40;101176.56;4968926;28;20053;-83
2022/05/04 10:17:21;;;;;;;9.05;3.50;;;;;;;26.43;24.72;101186.78;4972204;28;20064;-82
2022/05/04 10:20:09;;;;;;;7.47;3.58;;;;;;;26.58;24.60;101176.81;4968010;28;20125;-81
2022/05/04 10:22:56;;;;;;;5.35;2.92;;;;;;;26.88;24.73;101171.19;4987764;28;20058;-81
2022/05/04 10:25:26;;;;;;;9.80;3.63;;;;;;;26.88;24.32;101173.00;4998691;28;20053;-81
2022/05/04 10:28:12;;;;;;;9.60;3.60;;;;;;;26.98;24.03;101178.59;4964960;28;20076;-82
2022/05/04 10:30:58;;;;;;;8.95;3.45;;;;;;;27.56;23.88;101174.47;5001295;28;20077;-82
2022/05/04 10:33:34;;;;;;;7.30;2.75;;;;;;;28.11;23.66;101160.63;4967114;28;20408;-84
2022/05/04 10:36:21;;;;;;;6.95;3.45;;;;;;;28.74;22.19;101157.66;4987163;28;20064;-86
2022/05/04 10:38:58;;;;;;;6.22;3.00;;;;;;;29.24;21.93;101148.38;4974315;28;20332;-82
2022/05/04 10:41:38;;;;;;;6.72;3.20;;;;;;;29.05;22.13;101145.31;4983417;28;20062;-82
2022/05/04 10:44:10;;;;;;;6.05;3.05;;;;;;;29.33;22.50;101148.53;4980844;28;20416;-82
2022/05/04 10:46:40;;;;;;;4.60;3.05;;;;;;;29.70;21.51;101139.28;4982154;28;20646;-83
2022/05/04 10:49:11;;;;;;;8.63;3.10;;;;;;;30.09;21.32;101136.06;4977983;28;20057;-85
2022/05/04 10:51:44;;;;;;;9.20;3.65;;;;;;;30.42;21.03;101136.91;4968884;28;20046;-83
2022/05/04 10:54:18;;;;;;;5.20;3.78;;;;;;;31.17;19.96;101134.94;4966524;28;20068;-83
2022/05/04 10:56:53;;;;;;;10.15;4.20;;;;;;;30.77;20.40;101127.59;4991841;28;20042;-83
2022/05/04 10:59:30;;;;;;;6.00;3.67;;;;;;;30.60;20.29;101140.75;4979285;28;20056;-83
2022/05/04 11:02:05;;;;;;;6.05;3.72;;;;;;;30.41;20.81;101133.34;4983256;28;20049;-83
2022/05/04 11:04:34;;;;;;;7.32;3.15;;;;;;;31.13;20.31;101128.09;4972364;28;20050;-83
2022/05/04 11:07:00;;;;;;;5.78;3.00;;;;;;;31.74;20.00;101120.88;4982998;28;20093;-83
2022/05/04 11:09:39;;;;;;;8.38;3.65;;;;;;;32.68;19.49;101128.34;4995243;28;20046;-84
2022/05/04 11:12:10;;;;;;;6.82;3.10;;;;;;;32.78;18.07;101129.22;4969490;28;20050;-82
2022/05/04 11:14:37;;;;;;;4.65;3.47;;;;;;;30.93;19.66;101122.56;4960531;28;20065;-83
2022/05/04 11:17:14;;;;;;;8.20;3.90;;;;;;;29.98;20.73;101124.34;4965699;28;20054;-82
2022/05/04 11:19:46;;;;;;;5.53;4.05;;;;;;;29.21;21.62;101127.91;4958268;28;20053;-82
2022/05/04 11:22:15;;;;;;;5.57;3.58;;;;;;;29.34;21.94;101119.72;4977539;28;20050;-83
2022/05/04 11:24:43;;;;;;;9.07;3.90;;;;;;;29.02;22.00;101117.72;4962218;28;20146;-83
2022/05/04 11:27:11;;;;;;;7.53;4.38;;;;;;;28.52;22.84;101107.25;4987543;28;20062;-83
2022/05/04 11:29:38;;;;;;;9.15;3.78;;;;;;;28.21;23.28;101110.50;4979101;28;20072;-82
2022/05/04 11:32:06;;;;;;;7.95;3.92;;;;;;;28.76;22.48;101109.03;4965367;28;20413;-83
2022/05/04 11:34:38;;;;;;;6.10;3.72;;;;;;;29.16;21.87;101112.09;4979798;28;20101;-84
2022/05/04 11:37:08;;;;;;;8.40;4.00;;;;;;;29.23;22.17;101103.50;4982479;28;20054;-83
2022/05/04 11:39:36;;;;;;;6.43;4.15;;;;;;;29.60;21.73;101105.94;4953968;28;20057;-82
2022/05/04 11:42:07;;;;;;;6.32;4.10;;;;;;;30.06;21.49;101101.25;4968975;28;20086;-82
2022/05/04 11:44:34;;;;;;;6.20;4.68;;;;;;;30.69;21.05;101098.56;4968247;28;20055;-82
2022/05/04 11:47:03;;;;;;;3.70;3.40;;;;;;;31.02;20.35;101096.56;4953190;28;20069;-85
2022/05/04 11:49:32;;;;;;;6.38;3.15;;;;;;;31.19;20.36;101092.38;4968894;28;20054;-83
2022/05/04 11:52:00;;;;;;;6.05;3.85;;;;;;;31.84;19.49;101095.50;4972190;28;20060;-84
2022/05/04 11:54:28;;;;;;;8.98;4.13;;;;;;;32.43;19.05;101098.19;4971000;28;20050;-82
2022/05/04 11:56:57;;;;;;;11.43;4.50;;;;;;;33.12;18.40;101090.66;4953647;28;20054;-83
2022/05/04 11:59:33;;;;;;;7.78;3.90;;;;;;;33.43;18.29;101089.53;4954304;28;20058;-83
2022/05/04 12:02:01;;;;;;;5.18;3.47;;;;;;;33.62;18.16;101080.38;4954104;28;20645;-84
2022/05/04 12:04:29;;;;;;;4.90;4.30;;;;;;;33.70;17.45;101085.91;4956793;28;20046;-84
2022/05/04 12:06:57;;;;;;;7.43;4.30;;;;;;;33.04;18.83;101078.88;4952064;28;20100;-84